Iquique, Chile
Current Conditions -  °F | °C
As of 6:00 PM on Friday 26 Dec 2014 (Local Time) from SCDA Reporting Station
Broken Clouds Broken Clouds  
Wind Chill: 70°   Ceiling: 2500
Heat Index: 70°   Visibility: 6mi
Dew Point: 59°   Wind: 14mph
Humidity: 68%   Direction: 200°SSW
Pressure: 29.88"   Gusts: NA
Location:  20.23°S, 70.14°W
Report Text: SCDA 262200Z 20012KT 9999 BKN025 21/15 Q1012
Loading
Personal Weather Stations






























Interactive Weather Map New forecast layout! Learn more

10-Day Weather Forecast

Advertisements
Track Severe Weather on mobile